Pearl, MS (39208)

9:25 PM CDT on July 28, 2016 (GMT -0500)
Belhaven | | Change Station

Elev 318 ft 32.32 °N, 90.16 °W | Updated 26 seconds ago

Mostly Cloudy
Mostly Cloudy
77.0 °F
Feels Like 78 °F
N
0.0
Wind Variable Wind from NNW
Gusts 0.0 mph

Today
High -- | Low -- °F
--% Chance of Precip.
Yesterday
High -- | Low -- °F
Precip. -- in
Pressure 29.99 in
Visibility 10.0 miles
Clouds Scattered Clouds 2000 ft
Mostly Cloudy 12000 ft
Heat Index 78 °F
Dew Point 75 °F
Humidity 93%
Rainfall 0.15 in
Snow Depth Not available.
6:12 AM 8:00 PM
Waning Crescent, 26% visible
METAR KJAN 290154Z 00000KT 10SM SCT020 BKN120 26/23 A3000 RMK AO2 SLP153 T02560228
Pressure 29.99 in
Visibility 10.0 miles
Clouds Scattered Clouds 2000 ft
Mostly Cloudy 12000 ft
Heat Index 78 °F
Dew Point 75 °F
Humidity 93%
Rainfall 0.15 in
Snow Depth Not available.
6:12 AM 8:00 PM
Waning Crescent, 26% visible
METAR KJAN 290154Z 00000KT 10SM SCT020 BKN120 26/23 A3000 RMK AO2 SLP153 T02560228

10-Day Weather Forecast

Almanac

Astronomy

Jul. 28, 2016 Rise Set
Actual Time
Civil Twilight
Nautical Twilight
Astronomical Twilight
Moon
Length of Visible Light
Length of Day
Tomorrow will be .
, % of the Moon is Illuminated

Today's Extremes

State Highs State Lows

Community

WunderPhotos

Upload Photos

1,928,273 photos uploaded!

WunderBlog® & News

Nearby

Air Quality

  Air Quality AQ Index Pollutant
Not available.

Snow Depth

Station Depth Elevation

Earthquake Activity

City Distance Mag. Time & Date
Minimum magnitude displayed is 2.5.

Coastal Water Temperatures

Place Temperature

Stations

Nearby Weather Stations

Station Location Temp. Windchill Dew Point Humidity Wind Precip. Elev Updated Type
                   

Watches & Warnings

There are currently no watches in effect.